sensor_id;sensor_type;location;lat;lon;timestamp;P1;durP1;ratioP1;P2;durP2;ratioP2
85077;SDS011;75413;50.144;8.456;2024-03-02T08:02:38;19.30;;;9.93;;
85077;SDS011;75413;50.144;8.456;2024-03-02T08:05:22;18.00;;;10.00;;
85077;SDS011;75413;50.144;8.456;2024-03-02T08:08:06;16.00;;;10.48;;
85077;SDS011;75413;50.144;8.456;2024-03-02T08:10:50;15.90;;;10.13;;
85077;SDS011;75413;50.144;8.456;2024-03-02T08:13:34;17.23;;;10.20;;
85077;SDS011;75413;50.144;8.456;2024-03-02T08:16:18;16.33;;;10.02;;
85077;SDS011;75413;50.144;8.456;2024-03-02T08:19:03;17.15;;;10.40;;
85077;SDS011;75413;50.144;8.456;2024-03-02T08:21:47;17.90;;;11.80;;
85077;SDS011;75413;50.144;8.456;2024-03-02T08:24:31;16.05;;;11.75;;
85077;SDS011;75413;50.144;8.456;2024-03-02T08:27:15;17.60;;;12.70;;
85077;SDS011;75413;50.144;8.456;2024-03-02T08:29:59;19.92;;;12.77;;
85077;SDS011;75413;50.144;8.456;2024-03-02T08:32:43;18.38;;;12.93;;
85077;SDS011;75413;50.144;8.456;2024-03-02T08:35:28;17.55;;;12.77;;
85077;SDS011;75413;50.144;8.456;2024-03-02T08:38:12;22.63;;;13.63;;
85077;SDS011;75413;50.144;8.456;2024-03-02T08:40:56;19.08;;;12.88;;
85077;SDS011;75413;50.144;8.456;2024-03-02T08:43:40;19.05;;;13.38;;
85077;SDS011;75413;50.144;8.456;2024-03-02T08:46:26;21.92;;;12.48;;
85077;SDS011;75413;50.144;8.456;2024-03-02T08:49:10;20.70;;;12.43;;
85077;SDS011;75413;50.144;8.456;2024-03-02T08:51:54;18.10;;;13.05;;
85077;SDS011;75413;50.144;8.456;2024-03-02T08:54:38;19.33;;;12.40;;
85077;SDS011;75413;50.144;8.456;2024-03-02T08:57:25;18.88;;;11.82;;
85077;SDS011;75413;50.144;8.456;2024-03-02T09:00:09;15.65;;;10.73;;
85077;SDS011;75413;50.144;8.456;2024-03-02T09:02:54;15.18;;;10.20;;
85077;SDS011;75413;50.144;8.456;2024-03-02T09:05:38;15.13;;;9.63;;
85077;SDS011;75413;50.144;8.456;2024-03-02T09:08:22;11.85;;;8.48;;
85077;SDS011;75413;50.144;8.456;2024-03-02T09:11:06;12.27;;;9.80;;
85077;SDS011;75413;50.144;8.456;2024-03-02T09:13:50;13.10;;;8.55;;
85077;SDS011;75413;50.144;8.456;2024-03-02T09:16:35;12.80;;;8.38;;
85077;SDS011;75413;50.144;8.456;2024-03-02T09:19:19;15.23;;;10.10;;
85077;SDS011;75413;50.144;8.456;2024-03-02T09:22:02;13.10;;;8.38;;
85077;SDS011;75413;50.144;8.456;2024-03-02T09:24:49;11.70;;;8.65;;
85077;SDS011;75413;50.144;8.456;2024-03-02T09:27:33;14.18;;;8.90;;
85077;SDS011;75413;50.144;8.456;2024-03-02T09:30:17;14.57;;;9.02;;
85077;SDS011;75413;50.144;8.456;2024-03-02T09:33:01;11.25;;;8.98;;
85077;SDS011;75413;50.144;8.456;2024-03-02T09:35:45;14.90;;;8.65;;
85077;SDS011;75413;50.144;8.456;2024-03-02T09:41:13;11.40;;;7.95;;
85077;SDS011;75413;50.144;8.456;2024-03-02T09:43:57;12.43;;;9.32;;
85077;SDS011;75413;50.144;8.456;2024-03-02T09:46:42;11.55;;;8.63;;
85077;SDS011;75413;50.144;8.456;2024-03-02T09:49:27;12.38;;;9.23;;
85077;SDS011;75413;50.144;8.456;2024-03-02T09:54:57;15.32;;;8.95;;
85077;SDS011;75413;50.144;8.456;2024-03-02T09:57:41;13.77;;;8.50;;
85077;SDS011;75413;50.144;8.456;2024-03-02T10:00:26;9.07;;;7.18;;
85077;SDS011;75413;50.144;8.456;2024-03-02T10:03:12;10.60;;;8.05;;
85077;SDS011;75413;50.144;8.456;2024-03-02T10:06:09;13.23;;;8.48;;
85077;SDS011;75413;50.144;8.456;2024-03-02T10:09:08;12.35;;;8.65;;
85077;SDS011;75413;50.144;8.456;2024-03-02T10:14:35;11.48;;;7.70;;
85077;SDS011;75413;50.144;8.456;2024-03-02T10:20:22;11.45;;;8.05;;
85077;SDS011;75413;50.144;8.456;2024-03-02T10:23:14;11.77;;;8.27;;
85077;SDS011;75413;50.144;8.456;2024-03-02T10:26:00;12.98;;;7.93;;
85077;SDS011;75413;50.144;8.456;2024-03-02T10:28:47;9.98;;;7.25;;
85077;SDS011;75413;50.144;8.456;2024-03-02T10:31:31;11.05;;;8.43;;
85077;SDS011;75413;50.144;8.456;2024-03-02T10:34:16;11.05;;;7.88;;
85077;SDS011;75413;50.144;8.456;2024-03-02T10:37:00;13.52;;;7.38;;
85077;SDS011;75413;50.144;8.456;2024-03-02T10:39:45;13.38;;;8.15;;
85077;SDS011;75413;50.144;8.456;2024-03-02T10:42:30;10.68;;;7.72;;
85077;SDS011;75413;50.144;8.456;2024-03-02T10:45:15;13.30;;;8.88;;
85077;SDS011;75413;50.144;8.456;2024-03-02T10:48:01;12.68;;;9.02;;
85077;SDS011;75413;50.144;8.456;2024-03-02T10:50:46;14.50;;;8.45;;
85077;SDS011;75413;50.144;8.456;2024-03-02T10:53:30;11.73;;;8.68;;
85077;SDS011;75413;50.144;8.456;2024-03-02T10:56:16;11.05;;;8.15;;
85077;SDS011;75413;50.144;8.456;2024-03-02T10:59:16;12.57;;;8.75;;
85077;SDS011;75413;50.144;8.456;2024-03-02T11:02:15;10.82;;;7.05;;
85077;SDS011;75413;50.144;8.456;2024-03-02T11:05:01;10.43;;;7.63;;
85077;SDS011;75413;50.144;8.456;2024-03-02T11:07:52;11.00;;;7.93;;
85077;SDS011;75413;50.144;8.456;2024-03-02T11:10:54;11.02;;;8.18;;
85077;SDS011;75413;50.144;8.456;2024-03-02T11:13:42;12.32;;;7.60;;
85077;SDS011;75413;50.144;8.456;2024-03-02T11:16:36;14.98;;;8.75;;
85077;SDS011;75413;50.144;8.456;2024-03-02T11:19:22;11.95;;;8.27;;
85077;SDS011;75413;50.144;8.456;2024-03-02T11:22:08;12.50;;;8.30;;
85077;SDS011;75413;50.144;8.456;2024-03-02T11:24:53;12.00;;;8.90;;
85077;SDS011;75413;50.144;8.456;2024-03-02T11:33:22;11.00;;;7.65;;
85077;SDS011;75413;50.144;8.456;2024-03-02T11:36:07;11.43;;;7.05;;
85077;SDS011;75413;50.144;8.456;2024-03-02T11:38:55;8.40;;;6.75;;
85077;SDS011;75413;50.144;8.456;2024-03-02T11:41:39;8.93;;;6.38;;
85077;SDS011;75413;50.144;8.456;2024-03-02T11:47:14;9.43;;;6.00;;
85077;SDS011;75413;50.144;8.456;2024-03-02T11:50:00;23.02;;;7.10;;
85077;SDS011;75413;50.144;8.456;2024-03-02T11:55:30;8.23;;;5.82;;
85077;SDS011;75413;50.144;8.456;2024-03-02T11:58:15;9.82;;;6.82;;
85077;SDS011;75413;50.144;8.456;2024-03-02T12:01:04;9.45;;;6.53;;
85077;SDS011;75413;50.144;8.456;2024-03-02T12:03:51;10.10;;;6.85;;
85077;SDS011;75413;50.144;8.456;2024-03-02T12:06:38;9.90;;;6.80;;
85077;SDS011;75413;50.144;8.456;2024-03-02T12:09:22;8.05;;;5.72;;
85077;SDS011;75413;50.144;8.456;2024-03-02T12:12:07;7.53;;;5.40;;
85077;SDS011;75413;50.144;8.456;2024-03-02T12:14:53;7.97;;;6.03;;
85077;SDS011;75413;50.144;8.456;2024-03-02T12:17:39;9.65;;;6.75;;
85077;SDS011;75413;50.144;8.456;2024-03-02T12:20:24;7.45;;;6.05;;
85077;SDS011;75413;50.144;8.456;2024-03-02T12:23:09;8.77;;;6.38;;
85077;SDS011;75413;50.144;8.456;2024-03-02T12:25:53;13.52;;;7.75;;
85077;SDS011;75413;50.144;8.456;2024-03-02T12:28:38;7.55;;;5.65;;
85077;SDS011;75413;50.144;8.456;2024-03-02T12:31:22;9.38;;;5.78;;
85077;SDS011;75413;50.144;8.456;2024-03-02T12:34:06;5.32;;;4.82;;
85077;SDS011;75413;50.144;8.456;2024-03-02T12:36:52;7.07;;;4.90;;
85077;SDS011;75413;50.144;8.456;2024-03-02T12:39:37;8.55;;;5.20;;
85077;SDS011;75413;50.144;8.456;2024-03-02T12:45:05;7.72;;;4.85;;
85077;SDS011;75413;50.144;8.456;2024-03-02T12:47:51;7.45;;;4.88;;
85077;SDS011;75413;50.144;8.456;2024-03-02T12:50:35;6.78;;;5.07;;
85077;SDS011;75413;50.144;8.456;2024-03-02T12:53:19;8.95;;;4.88;;
85077;SDS011;75413;50.144;8.456;2024-03-02T12:56:05;6.45;;;4.32;;
85077;SDS011;75413;50.144;8.456;2024-03-02T12:58:55;10.27;;;4.53;;
85077;SDS011;75413;50.144;8.456;2024-03-02T13:01:49;6.20;;;4.18;;
85077;SDS011;75413;50.144;8.456;2024-03-02T13:04:33;7.20;;;4.55;;
85077;SDS011;75413;50.144;8.456;2024-03-02T13:07:18;7.50;;;4.32;;
85077;SDS011;75413;50.144;8.456;2024-03-02T13:10:02;9.68;;;4.43;;
85077;SDS011;75413;50.144;8.456;2024-03-02T13:12:49;6.20;;;4.55;;
85077;SDS011;75413;50.144;8.456;2024-03-02T13:15:34;6.70;;;4.95;;
85077;SDS011;75413;50.144;8.456;2024-03-02T13:18:18;7.05;;;4.90;;
85077;SDS011;75413;50.144;8.456;2024-03-02T13:21:03;7.35;;;6.00;;
85077;SDS011;75413;50.144;8.456;2024-03-02T13:23:47;6.90;;;5.07;;
85077;SDS011;75413;50.144;8.456;2024-03-02T13:26:34;8.35;;;5.65;;
85077;SDS011;75413;50.144;8.456;2024-03-02T13:29:27;8.98;;;6.28;;
85077;SDS011;75413;50.144;8.456;2024-03-02T13:32:11;10.75;;;6.15;;
85077;SDS011;75413;50.144;8.456;2024-03-02T13:34:55;9.27;;;6.03;;
85077;SDS011;75413;50.144;8.456;2024-03-02T13:40:23;7.85;;;5.63;;
85077;SDS011;75413;50.144;8.456;2024-03-02T13:43:07;6.70;;;5.03;;
85077;SDS011;75413;50.144;8.456;2024-03-02T13:45:51;7.65;;;5.50;;
85077;SDS011;75413;50.144;8.456;2024-03-02T13:48:36;6.60;;;4.80;;
85077;SDS011;75413;50.144;8.456;2024-03-02T13:51:23;7.65;;;5.10;;
85077;SDS011;75413;50.144;8.456;2024-03-02T13:54:07;6.95;;;5.55;;
85077;SDS011;75413;50.144;8.456;2024-03-02T13:56:51;7.20;;;5.78;;
85077;SDS011;75413;50.144;8.456;2024-03-02T13:59:36;5.72;;;4.70;;
85077;SDS011;75413;50.144;8.456;2024-03-02T14:02:20;6.80;;;5.20;;
85077;SDS011;75413;50.144;8.456;2024-03-02T14:05:04;6.22;;;4.43;;
85077;SDS011;75413;50.144;8.456;2024-03-02T14:07:48;9.52;;;5.57;;
85077;SDS011;75413;50.144;8.456;2024-03-02T14:10:32;5.18;;;4.35;;
85077;SDS011;75413;50.144;8.456;2024-03-02T14:13:19;6.78;;;4.57;;
85077;SDS011;75413;50.144;8.456;2024-03-02T14:16:03;5.85;;;3.97;;
85077;SDS011;75413;50.144;8.456;2024-03-02T14:18:48;6.63;;;4.15;;
85077;SDS011;75413;50.144;8.456;2024-03-02T14:21:32;7.75;;;4.00;;
85077;SDS011;75413;50.144;8.456;2024-03-02T14:24:16;4.65;;;4.22;;
85077;SDS011;75413;50.144;8.456;2024-03-02T14:27:00;5.63;;;4.30;;
85077;SDS011;75413;50.144;8.456;2024-03-02T14:29:47;4.70;;;3.92;;
85077;SDS011;75413;50.144;8.456;2024-03-02T14:32:31;6.38;;;4.57;;
85077;SDS011;75413;50.144;8.456;2024-03-02T14:35:15;6.60;;;4.10;;
85077;SDS011;75413;50.144;8.456;2024-03-02T14:37:58;7.25;;;4.10;;
85077;SDS011;75413;50.144;8.456;2024-03-02T14:40:42;4.68;;;4.00;;
85077;SDS011;75413;50.144;8.456;2024-03-02T14:43:26;4.78;;;3.75;;
85077;SDS011;75413;50.144;8.456;2024-03-02T14:46:10;5.00;;;4.38;;
85077;SDS011;75413;50.144;8.456;2024-03-02T14:48:55;5.93;;;4.40;;
85077;SDS011;75413;50.144;8.456;2024-03-02T14:51:40;5.03;;;3.97;;
85077;SDS011;75413;50.144;8.456;2024-03-02T14:54:26;6.43;;;3.70;;
85077;SDS011;75413;50.144;8.456;2024-03-02T14:57:10;4.88;;;3.85;;
85077;SDS011;75413;50.144;8.456;2024-03-02T14:59:55;4.78;;;3.70;;
85077;SDS011;75413;50.144;8.456;2024-03-02T15:02:39;4.07;;;3.17;;
85077;SDS011;75413;50.144;8.456;2024-03-02T15:05:24;4.28;;;3.33;;
85077;SDS011;75413;50.144;8.456;2024-03-02T15:08:09;5.97;;;3.10;;
85077;SDS011;75413;50.144;8.456;2024-03-02T15:10:56;3.97;;;3.22;;
85077;SDS011;75413;50.144;8.456;2024-03-02T15:13:41;4.03;;;2.85;;
85077;SDS011;75413;50.144;8.456;2024-03-02T15:16:26;6.25;;;4.18;;
85077;SDS011;75413;50.144;8.456;2024-03-02T15:19:12;4.40;;;3.47;;
85077;SDS011;75413;50.144;8.456;2024-03-02T15:21:56;3.97;;;2.83;;
85077;SDS011;75413;50.144;8.456;2024-03-02T15:24:40;4.15;;;2.85;;
85077;SDS011;75413;50.144;8.456;2024-03-02T15:27:24;7.45;;;3.05;;
85077;SDS011;75413;50.144;8.456;2024-03-02T15:30:08;4.80;;;2.80;;
85077;SDS011;75413;50.144;8.456;2024-03-02T15:32:53;5.95;;;3.58;;
85077;SDS011;75413;50.144;8.456;2024-03-02T15:35:37;3.40;;;2.50;;
85077;SDS011;75413;50.144;8.456;2024-03-02T15:41:07;3.60;;;2.50;;
85077;SDS011;75413;50.144;8.456;2024-03-02T15:46:35;4.25;;;2.70;;
85077;SDS011;75413;50.144;8.456;2024-03-02T15:49:19;2.78;;;2.40;;
85077;SDS011;75413;50.144;8.456;2024-03-02T15:52:03;2.92;;;2.28;;
85077;SDS011;75413;50.144;8.456;2024-03-02T15:54:48;3.45;;;2.40;;
85077;SDS011;75413;50.144;8.456;2024-03-02T15:57:33;2.67;;;2.33;;
85077;SDS011;75413;50.144;8.456;2024-03-02T16:00:18;2.92;;;2.22;;
85077;SDS011;75413;50.144;8.456;2024-03-02T16:03:02;2.80;;;2.13;;
85077;SDS011;75413;50.144;8.456;2024-03-02T16:05:47;3.63;;;2.10;;
85077;SDS011;75413;50.144;8.456;2024-03-02T16:08:31;3.17;;;2.10;;
85077;SDS011;75413;50.144;8.456;2024-03-02T16:13:59;2.90;;;2.20;;
85077;SDS011;75413;50.144;8.456;2024-03-02T16:16:43;3.38;;;2.40;;
85077;SDS011;75413;50.144;8.456;2024-03-02T16:19:28;3.28;;;2.35;;
85077;SDS011;75413;50.144;8.456;2024-03-02T16:24:56;5.88;;;2.65;;
85077;SDS011;75413;50.144;8.456;2024-03-02T16:27:40;3.88;;;2.13;;
85077;SDS011;75413;50.144;8.456;2024-03-02T16:30:26;3.13;;;2.30;;
85077;SDS011;75413;50.144;8.456;2024-03-02T16:33:10;3.70;;;2.10;;
85077;SDS011;75413;50.144;8.456;2024-03-02T16:38:41;4.50;;;2.40;;
85077;SDS011;75413;50.144;8.456;2024-03-02T16:41:25;3.97;;;2.45;;
85077;SDS011;75413;50.144;8.456;2024-03-02T16:44:13;4.18;;;2.20;;
85077;SDS011;75413;50.144;8.456;2024-03-02T16:46:57;4.63;;;2.22;;
85077;SDS011;75413;50.144;8.456;2024-03-02T16:52:29;3.22;;;2.05;;
85077;SDS011;75413;50.144;8.456;2024-03-02T16:55:13;2.35;;;1.95;;
85077;SDS011;75413;50.144;8.456;2024-03-02T16:57:58;2.72;;;2.00;;
85077;SDS011;75413;50.144;8.456;2024-03-02T17:00:42;4.60;;;2.05;;
85077;SDS011;75413;50.144;8.456;2024-03-02T17:03:26;3.92;;;2.20;;
85077;SDS011;75413;50.144;8.456;2024-03-02T17:06:10;2.88;;;1.60;;
85077;SDS011;75413;50.144;8.456;2024-03-02T17:08:54;3.00;;;2.25;;
85077;SDS011;75413;50.144;8.456;2024-03-02T17:14:22;2.05;;;1.90;;
85077;SDS011;75413;50.144;8.456;2024-03-02T17:19:50;3.78;;;1.90;;
85077;SDS011;75413;50.144;8.456;2024-03-02T17:25:22;4.20;;;1.50;;
85077;SDS011;75413;50.144;8.456;2024-03-02T17:28:22;2.95;;;2.10;;
85077;SDS011;75413;50.144;8.456;2024-03-02T17:31:07;2.75;;;1.90;;
85077;SDS011;75413;50.144;8.456;2024-03-02T17:33:51;2.65;;;2.03;;
85077;SDS011;75413;50.144;8.456;2024-03-02T17:39:23;2.80;;;1.70;;
85077;SDS011;75413;50.144;8.456;2024-03-02T17:42:07;2.70;;;1.95;;
85077;SDS011;75413;50.144;8.456;2024-03-02T17:47:38;3.10;;;2.00;;
85077;SDS011;75413;50.144;8.456;2024-03-02T17:53:06;2.78;;;1.90;;
85077;SDS011;75413;50.144;8.456;2024-03-02T17:55:50;2.70;;;2.20;;
85077;SDS011;75413;50.144;8.456;2024-03-02T17:58:35;3.67;;;2.15;;
85077;SDS011;75413;50.144;8.456;2024-03-02T18:04:03;2.75;;;1.98;;
85077;SDS011;75413;50.144;8.456;2024-03-02T18:06:46;3.00;;;1.77;;
85077;SDS011;75413;50.144;8.456;2024-03-02T18:09:42;4.25;;;2.22;;
85077;SDS011;75413;50.144;8.456;2024-03-02T18:12:26;4.97;;;2.58;;
85077;SDS011;75413;50.144;8.456;2024-03-02T18:17:57;4.13;;;3.05;;
85077;SDS011;75413;50.144;8.456;2024-03-02T18:20:43;4.22;;;2.58;;
85077;SDS011;75413;50.144;8.456;2024-03-02T18:23:28;3.58;;;2.85;;
85077;SDS011;75413;50.144;8.456;2024-03-02T18:26:22;5.03;;;3.03;;
85077;SDS011;75413;50.144;8.456;2024-03-02T18:29:06;9.40;;;2.95;;
85077;SDS011;75413;50.144;8.456;2024-03-02T18:31:52;4.47;;;2.67;;
85077;SDS011;75413;50.144;8.456;2024-03-02T18:34:36;4.28;;;2.85;;
85077;SDS011;75413;50.144;8.456;2024-03-02T18:37:23;6.95;;;2.78;;
85077;SDS011;75413;50.144;8.456;2024-03-02T18:40:07;4.10;;;3.13;;
85077;SDS011;75413;50.144;8.456;2024-03-02T18:42:51;4.22;;;3.35;;
85077;SDS011;75413;50.144;8.456;2024-03-02T18:45:36;5.35;;;3.38;;
85077;SDS011;75413;50.144;8.456;2024-03-02T18:48:19;4.95;;;3.72;;
85077;SDS011;75413;50.144;8.456;2024-03-02T18:53:51;5.75;;;4.20;;
85077;SDS011;75413;50.144;8.456;2024-03-02T18:59:19;5.05;;;4.10;;
85077;SDS011;75413;50.144;8.456;2024-03-02T19:02:03;4.45;;;3.35;;
85077;SDS011;75413;50.144;8.456;2024-03-02T19:04:48;4.03;;;3.40;;
85077;SDS011;75413;50.144;8.456;2024-03-02T19:07:31;5.53;;;3.15;;
85077;SDS011;75413;50.144;8.456;2024-03-02T19:10:15;6.53;;;4.35;;
85077;SDS011;75413;50.144;8.456;2024-03-02T19:12:59;4.95;;;3.28;;
85077;SDS011;75413;50.144;8.456;2024-03-02T19:15:49;5.93;;;3.47;;
85077;SDS011;75413;50.144;8.456;2024-03-02T19:21:17;4.07;;;3.30;;
85077;SDS011;75413;50.144;8.456;2024-03-02T19:24:04;6.40;;;3.83;;
85077;SDS011;75413;50.144;8.456;2024-03-02T19:26:48;5.40;;;3.28;;
85077;SDS011;75413;50.144;8.456;2024-03-02T19:29:32;4.72;;;3.35;;
85077;SDS011;75413;50.144;8.456;2024-03-02T19:35:07;6.60;;;3.83;;
85077;SDS011;75413;50.144;8.456;2024-03-02T19:37:52;5.78;;;4.07;;
85077;SDS011;75413;50.144;8.456;2024-03-02T19:40:36;4.80;;;3.42;;
85077;SDS011;75413;50.144;8.456;2024-03-02T19:43:21;6.82;;;4.55;;
85077;SDS011;75413;50.144;8.456;2024-03-02T19:48:52;6.72;;;4.75;;
85077;SDS011;75413;50.144;8.456;2024-03-02T19:51:36;6.85;;;4.80;;
85077;SDS011;75413;50.144;8.456;2024-03-02T19:54:20;6.32;;;4.28;;
85077;SDS011;75413;50.144;8.456;2024-03-02T19:59:48;6.60;;;4.85;;
85077;SDS011;75413;50.144;8.456;2024-03-02T20:02:33;6.05;;;4.63;;
85077;SDS011;75413;50.144;8.456;2024-03-02T20:05:17;6.50;;;5.05;;
85077;SDS011;75413;50.144;8.456;2024-03-02T20:08:01;7.65;;;5.28;;
85077;SDS011;75413;50.144;8.456;2024-03-02T20:10:46;7.97;;;5.95;;
85077;SDS011;75413;50.144;8.456;2024-03-02T20:16:13;8.20;;;5.10;;
85077;SDS011;75413;50.144;8.456;2024-03-02T20:18:58;6.82;;;4.63;;
85077;SDS011;75413;50.144;8.456;2024-03-02T20:24:25;7.93;;;4.78;;
85077;SDS011;75413;50.144;8.456;2024-03-02T20:29:53;6.50;;;4.50;;
85077;SDS011;75413;50.144;8.456;2024-03-02T20:35:22;8.57;;;5.35;;
85077;SDS011;75413;50.144;8.456;2024-03-02T20:40:50;6.97;;;4.82;;
85077;SDS011;75413;50.144;8.456;2024-03-02T20:43:34;10.20;;;5.63;;
85077;SDS011;75413;50.144;8.456;2024-03-02T20:46:18;10.77;;;6.60;;
85077;SDS011;75413;50.144;8.456;2024-03-02T20:49:02;10.60;;;6.72;;
85077;SDS011;75413;50.144;8.456;2024-03-02T20:51:47;9.52;;;6.20;;
85077;SDS011;75413;50.144;8.456;2024-03-02T20:57:15;9.70;;;6.60;;
85077;SDS011;75413;50.144;8.456;2024-03-02T21:02:43;11.55;;;6.65;;
85077;SDS011;75413;50.144;8.456;2024-03-02T21:05:28;10.57;;;6.75;;
85077;SDS011;75413;50.144;8.456;2024-03-02T21:08:12;10.07;;;6.30;;
85077;SDS011;75413;50.144;8.456;2024-03-02T21:13:40;9.27;;;6.78;;
85077;SDS011;75413;50.144;8.456;2024-03-02T21:19:08;8.77;;;6.32;;
85077;SDS011;75413;50.144;8.456;2024-03-02T21:24:37;11.23;;;6.70;;
85077;SDS011;75413;50.144;8.456;2024-03-02T21:27:21;11.98;;;6.47;;
85077;SDS011;75413;50.144;8.456;2024-03-02T21:32:50;11.15;;;6.90;;
85077;SDS011;75413;50.144;8.456;2024-03-02T21:35:35;10.65;;;6.93;;
85077;SDS011;75413;50.144;8.456;2024-03-02T21:41:03;14.27;;;7.13;;
85077;SDS011;75413;50.144;8.456;2024-03-02T21:43:47;9.82;;;6.90;;
85077;SDS011;75413;50.144;8.456;2024-03-02T21:49:15;13.90;;;7.40;;
85077;SDS011;75413;50.144;8.456;2024-03-02T21:51:58;12.85;;;7.80;;
85077;SDS011;75413;50.144;8.456;2024-03-02T21:54:44;10.30;;;6.63;;
85077;SDS011;75413;50.144;8.456;2024-03-02T21:57:29;11.18;;;7.38;;
85077;SDS011;75413;50.144;8.456;2024-03-02T22:02:58;12.18;;;7.65;;
85077;SDS011;75413;50.144;8.456;2024-03-02T22:08:26;11.38;;;7.50;;
85077;SDS011;75413;50.144;8.456;2024-03-02T22:11:11;10.57;;;7.07;;
85077;SDS011;75413;50.144;8.456;2024-03-02T22:13:55;11.30;;;7.63;;
85077;SDS011;75413;50.144;8.456;2024-03-02T22:16:39;10.35;;;7.20;;
85077;SDS011;75413;50.144;8.456;2024-03-02T22:19:23;12.48;;;7.82;;
85077;SDS011;75413;50.144;8.456;2024-03-02T22:22:07;12.68;;;8.80;;
85077;SDS011;75413;50.144;8.456;2024-03-02T22:24:52;15.70;;;8.32;;
85077;SDS011;75413;50.144;8.456;2024-03-02T22:27:36;11.27;;;7.20;;
85077;SDS011;75413;50.144;8.456;2024-03-02T22:30:22;10.45;;;7.10;;
85077;SDS011;75413;50.144;8.456;2024-03-02T22:33:06;11.20;;;7.35;;
85077;SDS011;75413;50.144;8.456;2024-03-02T22:35:50;12.95;;;7.97;;
85077;SDS011;75413;50.144;8.456;2024-03-02T22:38:34;11.73;;;7.35;;
85077;SDS011;75413;50.144;8.456;2024-03-02T22:44:02;15.48;;;7.63;;
85077;SDS011;75413;50.144;8.456;2024-03-02T22:46:46;13.57;;;7.82;;
85077;SDS011;75413;50.144;8.456;2024-03-02T22:52:14;12.00;;;7.40;;
85077;SDS011;75413;50.144;8.456;2024-03-02T22:57:42;14.18;;;8.55;;
85077;SDS011;75413;50.144;8.456;2024-03-02T23:03:21;14.52;;;7.68;;
85077;SDS011;75413;50.144;8.456;2024-03-02T23:06:05;11.77;;;8.25;;
85077;SDS011;75413;50.144;8.456;2024-03-02T23:08:50;14.95;;;8.10;;
85077;SDS011;75413;50.144;8.456;2024-03-02T23:14:18;13.30;;;8.23;;
85077;SDS011;75413;50.144;8.456;2024-03-02T23:17:02;13.68;;;8.20;;
85077;SDS011;75413;50.144;8.456;2024-03-02T23:19:46;12.13;;;8.15;;
85077;SDS011;75413;50.144;8.456;2024-03-02T23:22:30;13.80;;;8.20;;
85077;SDS011;75413;50.144;8.456;2024-03-02T23:25:14;11.85;;;7.97;;
85077;SDS011;75413;50.144;8.456;2024-03-02T23:27:58;14.80;;;8.98;;
85077;SDS011;75413;50.144;8.456;2024-03-02T23:30:42;11.85;;;8.73;;
85077;SDS011;75413;50.144;8.456;2024-03-02T23:33:27;18.42;;;9.32;;
85077;SDS011;75413;50.144;8.456;2024-03-02T23:36:10;14.38;;;9.05;;
85077;SDS011;75413;50.144;8.456;2024-03-02T23:38:54;14.48;;;7.97;;
85077;SDS011;75413;50.144;8.456;2024-03-02T23:41:38;12.98;;;8.00;;
85077;SDS011;75413;50.144;8.456;2024-03-02T23:44:22;16.27;;;8.80;;
85077;SDS011;75413;50.144;8.456;2024-03-02T23:49:51;13.88;;;8.00;;
85077;SDS011;75413;50.144;8.456;2024-03-02T23:52:35;14.70;;;8.35;;
85077;SDS011;75413;50.144;8.456;2024-03-02T23:55:19;15.80;;;8.60;;
85077;SDS011;75413;50.144;8.456;2024-03-02T23:58:03;14.52;;;9.13;;
